Time;durP1;ratioP1;P1;durP2;ratioP2;P2;SDS_P1;SDS_P2;PMS_P1;PMS_P2;Temp;Humidity;BMP_temperature;BMP_pressure;BME280_temperature;BME280_humidity;BME280_pressure;Samples;Min_cycle;Max_cycle;Signal;HPM_P1;HPM_P2
2021/01/01 04:07:17;;;;;;;6.20;4.57;;;;;;;3.99;73.30;96815.16;4978490;28;20288;-82
2021/01/01 04:09:43;;;;;;;6.87;4.70;;;;;;;3.93;74.18;96820.50;4967583;28;20317;-79
2021/01/01 04:12:10;;;;;;;6.23;4.20;;;;;;;3.91;73.91;96820.53;4969922;28;20228;-81
2021/01/01 04:14:36;;;;;;;6.70;4.70;;;;;;;3.90;73.51;96818.88;4973749;28;20216;-81
2021/01/01 04:17:03;;;;;;;5.63;4.53;;;;;;;3.91;73.59;96820.53;4974582;28;20239;-81
2021/01/01 04:19:29;;;;;;;5.87;4.73;;;;;;;3.92;73.52;96829.16;4977936;28;20223;-79
2021/01/01 04:21:55;;;;;;;7.53;5.37;;;;;;;3.93;73.78;96818.75;4977193;28;20312;-80
2021/01/01 04:24:22;;;;;;;6.43;4.80;;;;;;;3.96;73.74;96818.66;4976979;28;20245;-80
2021/01/01 04:26:48;;;;;;;9.73;5.73;;;;;;;4.02;73.27;96823.59;4976187;28;20250;-81
2021/01/01 04:29:14;;;;;;;7.17;5.40;;;;;;;4.01;73.37;96827.09;4976962;28;20677;-82
2021/01/01 04:31:41;;;;;;;8.17;5.30;;;;;;;3.99;74.04;96828.06;4976075;28;20754;-82
2021/01/01 04:34:07;;;;;;;6.23;5.30;;;;;;;3.97;73.64;96824.66;4976873;28;20222;-81
2021/01/01 04:36:34;;;;;;;6.87;5.50;;;;;;;3.88;73.94;96835.28;4974422;28;20798;-81
2021/01/01 04:39:00;;;;;;;9.13;6.30;;;;;;;3.82;73.93;96828.59;4977509;28;20220;-81
2021/01/01 04:41:27;;;;;;;8.13;5.67;;;;;;;3.84;74.29;96831.94;4975724;28;20741;-80
2021/01/01 04:43:54;;;;;;;9.97;6.10;;;;;;;3.86;74.40;96833.59;4975933;28;20227;-81
2021/01/01 04:46:20;;;;;;;8.77;6.23;;;;;;;3.89;74.16;96845.56;4975616;28;20998;-80
2021/01/01 04:48:47;;;;;;;8.77;6.40;;;;;;;3.87;74.18;96844.75;4976570;28;20315;-81
2021/01/01 04:51:13;;;;;;;9.43;6.77;;;;;;;3.86;74.47;96843.94;4977774;28;20232;-82
2021/01/01 04:53:41;;;;;;;9.57;6.17;;;;;;;3.86;74.31;96845.66;4974780;28;20221;-80
2021/01/01 04:56:07;;;;;;;9.60;6.67;;;;;;;3.84;74.61;96842.28;4975489;28;20262;-81
2021/01/01 04:58:35;;;;;;;10.33;6.00;;;;;;;3.79;74.42;96842.44;4976097;28;20281;-81
2021/01/01 05:01:03;;;;;;;8.03;5.90;;;;;;;3.77;74.73;96848.56;4976646;28;20244;-80
2021/01/01 05:03:29;;;;;;;9.57;6.67;;;;;;;3.74;74.27;96851.22;4977691;28;20232;-82
2021/01/01 05:05:55;;;;;;;8.67;6.17;;;;;;;3.71;74.99;96852.13;4976269;28;20244;-81
2021/01/01 05:08:22;;;;;;;7.97;5.93;;;;;;;3.71;74.59;96853.88;4977246;28;20806;-81
2021/01/01 05:10:49;;;;;;;11.50;7.40;;;;;;;3.73;74.66;96862.41;4974344;28;20240;-82
2021/01/01 05:13:16;;;;;;;11.03;6.83;;;;;;;3.75;75.06;96863.19;4978186;28;20700;-82
2021/01/01 05:15:44;;;;;;;9.13;6.43;;;;;;;3.73;74.86;96867.56;4973860;28;20232;-81
2021/01/01 05:18:20;;;;;;;10.67;6.30;;;;;;;3.71;74.96;96870.19;4976639;28;20270;-82
2021/01/01 05:20:47;;;;;;;9.23;6.30;;;;;;;3.72;74.73;96877.06;4973653;28;20515;-80
2021/01/01 05:23:21;;;;;;;10.90;6.67;;;;;;;3.71;74.89;96879.66;4978327;28;20363;-81
2021/01/01 05:25:48;;;;;;;11.67;7.50;;;;;;;3.66;75.33;96878.09;4971937;28;20314;-80
2021/01/01 05:28:14;;;;;;;9.30;6.70;;;;;;;3.65;75.54;96886.69;4976258;28;20315;-80
2021/01/01 05:30:41;;;;;;;10.30;7.20;;;;;;;3.62;75.22;96891.97;4975506;28;20289;-80
2021/01/01 05:33:09;;;;;;;10.13;6.87;;;;;;;3.62;75.34;96880.78;4975947;28;20302;-82
2021/01/01 05:35:35;;;;;;;9.83;7.10;;;;;;;3.64;75.27;96885.03;4975825;28;20234;-80
2021/01/01 05:38:15;;;;;;;10.17;6.67;;;;;;;3.62;74.85;96880.78;4975614;28;20213;-81
2021/01/01 05:40:41;;;;;;;9.53;6.70;;;;;;;3.66;75.58;96888.41;4976488;28;20232;-81
2021/01/01 05:43:17;;;;;;;13.70;7.53;;;;;;;3.67;74.95;96891.81;4978171;28;20217;-81
2021/01/01 05:45:44;;;;;;;9.10;6.63;;;;;;;3.65;75.56;96891.84;4973697;28;20247;-80
2021/01/01 05:48:11;;;;;;;10.33;7.33;;;;;;;3.64;75.32;96895.34;4975071;28;20224;-81
2021/01/01 05:50:37;;;;;;;10.90;6.97;;;;;;;3.64;75.38;96889.34;4975069;28;20267;-81
2021/01/01 05:53:17;;;;;;;12.43;7.63;;;;;;;3.57;75.44;96888.69;4975309;28;20373;-81
2021/01/01 05:55:43;;;;;;;12.23;8.63;;;;;;;3.54;75.68;96895.69;4973627;28;20239;-81
2021/01/01 05:58:20;;;;;;;13.30;8.60;;;;;;;3.49;75.42;96895.81;4977454;28;20216;-81
2021/01/01 06:00:50;;;;;;;13.00;8.97;;;;;;;3.43;75.55;96899.41;4978218;28;20239;-81
2021/01/01 06:03:21;;;;;;;10.53;7.90;;;;;;;3.36;75.80;96900.47;4965862;28;20243;-79
2021/01/01 06:05:48;;;;;;;11.77;8.23;;;;;;;3.30;76.32;96897.25;4982055;28;20319;-81
2021/01/01 06:08:15;;;;;;;11.70;8.43;;;;;;;3.32;76.38;96906.63;4985066;28;20270;-81
2021/01/01 06:10:49;;;;;;;11.97;8.17;;;;;;;3.36;76.11;96915.94;4981254;28;20795;-82
2021/01/01 06:13:18;;;;;;;13.50;8.73;;;;;;;3.39;76.21;96920.19;4983423;28;20622;-80
2021/01/01 06:15:56;;;;;;;12.97;8.80;;;;;;;3.38;76.05;96919.34;4980550;28;20247;-81
2021/01/01 06:18:27;;;;;;;14.90;9.53;;;;;;;3.37;76.18;96921.97;4984684;28;20293;-80
2021/01/01 06:20:57;;;;;;;15.37;9.57;;;;;;;3.33;76.34;96918.63;4982486;28;20243;-81
2021/01/01 06:23:31;;;;;;;15.47;9.13;;;;;;;3.35;76.23;96924.59;4984446;28;20728;-79
2021/01/01 06:25:58;;;;;;;14.47;9.43;;;;;;;3.37;76.73;96927.13;4983566;28;20252;-80
2021/01/01 06:28:25;;;;;;;13.07;9.20;;;;;;;3.39;76.28;96941.63;4984397;28;20213;-82
2021/01/01 06:30:51;;;;;;;15.27;9.57;;;;;;;3.39;76.30;96935.66;4981761;28;20244;-81
2021/01/01 06:33:18;;;;;;;17.43;10.50;;;;;;;3.38;76.65;96945.13;4982833;28;20878;-82
2021/01/01 06:35:45;;;;;;;15.60;8.90;;;;;;;3.37;76.42;96934.84;4980689;28;20250;-82
2021/01/01 06:38:12;;;;;;;12.73;8.87;;;;;;;3.36;76.87;96940.88;4982500;28;20212;-82
2021/01/01 06:40:38;;;;;;;14.13;9.03;;;;;;;3.37;76.92;96938.28;4983904;28;20614;-80
2021/01/01 06:43:06;;;;;;;15.73;10.20;;;;;;;3.37;76.38;96942.59;4981151;28;20927;-80
2021/01/01 06:45:39;;;;;;;14.50;10.13;;;;;;;3.39;76.77;96944.22;4983779;28;20243;-81
2021/01/01 06:48:07;;;;;;;15.37;9.67;;;;;;;3.39;76.59;96945.97;4985280;28;20224;-81
2021/01/01 06:50:34;;;;;;;16.53;9.83;;;;;;;3.40;76.52;96948.50;4983124;28;20259;-83
2021/01/01 06:53:06;;;;;;;16.10;8.97;;;;;;;3.39;76.89;96945.97;4983336;28;21055;-80
2021/01/01 06:55:33;;;;;;;14.63;9.77;;;;;;;3.39;76.74;96956.28;4980997;28;20742;-81
2021/01/01 06:57:59;;;;;;;14.33;9.83;;;;;;;3.39;76.79;96948.53;4982608;28;20219;-81
2021/01/01 07:00:58;;;;;;;15.37;9.90;;;;;;;3.37;76.47;96952.91;4981519;28;20331;-79
2021/01/01 07:03:38;;;;;;;17.40;9.93;;;;;;;3.39;76.38;96956.28;4982753;28;20315;-80
2021/01/01 07:06:33;;;;;;;15.10;9.87;;;;;;;3.39;76.20;96951.13;4981821;28;20250;-82
2021/01/01 07:09:00;;;;;;;18.63;10.30;;;;;;;3.36;76.84;96953.78;4983474;28;20216;-82
2021/01/01 07:11:37;;;;;;;15.33;9.63;;;;;;;3.35;76.58;96954.69;4983147;28;20244;-82
2021/01/01 07:14:06;;;;;;;13.70;9.47;;;;;;;3.34;77.08;96953.81;4983377;28;20593;-83
2021/01/01 07:16:33;;;;;;;15.27;10.13;;;;;;;3.35;77.06;96959.84;4981358;28;20254;-81
2021/01/01 07:19:00;;;;;;;12.77;9.03;;;;;;;3.33;76.95;96956.44;4983612;28;20595;-80
2021/01/01 07:21:26;;;;;;;17.27;9.97;;;;;;;3.28;76.96;96949.69;4981157;28;20251;-83
2021/01/01 07:23:52;;;;;;;15.00;9.67;;;;;;;3.30;76.92;96953.97;4982662;28;20222;-80
2021/01/01 07:26:20;;;;;;;13.70;9.70;;;;;;;3.28;77.07;96954.84;4980507;28;20733;-79
2021/01/01 07:28:47;;;;;;;18.70;10.73;;;;;;;3.33;77.25;96959.88;4982154;28;20311;-81
2021/01/01 07:31:15;;;;;;;17.40;10.10;;;;;;;3.36;76.72;96961.50;4972966;28;20239;-80
2021/01/01 07:33:41;;;;;;;16.30;10.60;;;;;;;3.37;77.06;96964.03;4982353;28;20224;-80
2021/01/01 07:36:10;;;;;;;17.87;10.10;;;;;;;3.38;77.13;96960.59;4979314;28;20244;-81
2021/01/01 07:38:39;;;;;;;17.83;10.63;;;;;;;3.37;77.16;96952.91;4982269;28;20217;-80
2021/01/01 07:41:06;;;;;;;14.73;9.93;;;;;;;3.38;76.95;96968.31;4982528;28;20883;-81
2021/01/01 07:43:33;;;;;;;18.77;11.30;;;;;;;3.39;77.05;96971.72;4982059;28;20212;-81
2021/01/01 07:46:00;;;;;;;17.03;11.13;;;;;;;3.39;77.24;96971.72;4981101;28;20250;-82
2021/01/01 07:48:27;;;;;;;18.43;10.63;;;;;;;3.40;77.13;96979.44;4982015;28;20306;-80
2021/01/01 07:50:57;;;;;;;15.93;10.57;;;;;;;3.38;77.18;96975.19;4979143;28;20345;-80
2021/01/01 07:53:24;;;;;;;14.67;9.70;;;;;;;3.36;77.35;96982.97;4982160;28;20725;-82
2021/01/01 07:55:50;;;;;;;18.97;12.23;;;;;;;3.39;77.31;96989.78;4978231;28;20346;-82
2021/01/01 07:58:16;;;;;;;22.17;13.57;;;;;;;3.45;77.46;96989.59;4980812;28;20217;-82
2021/01/01 08:00:45;;;;;;;14.17;10.30;;;;;;;3.50;76.97;96999.78;4982313;28;20325;-81
2021/01/01 08:03:12;;;;;;;15.23;10.87;;;;;;;3.50;77.49;96999.78;4981763;28;20235;-82
2021/01/01 08:05:38;;;;;;;20.27;11.97;;;;;;;3.54;77.14;97002.22;4981723;28;20581;-82
2021/01/01 08:08:11;;;;;;;20.20;11.00;;;;;;;3.55;77.07;96992.75;4980641;28;20212;-82
2021/01/01 08:10:38;;;;;;;16.33;10.33;;;;;;;3.56;76.90;97002.19;4979768;28;20243;-80
2021/01/01 08:13:04;;;;;;;17.53;10.93;;;;;;;3.53;77.21;97000.53;4979007;28;20236;-80
2021/01/01 08:15:31;;;;;;;17.17;11.20;;;;;;;3.56;77.13;97009.91;4979490;28;20262;-81
2021/01/01 08:18:08;;;;;;;18.13;11.83;;;;;;;3.57;77.17;97006.47;4981657;28;20733;-83
2021/01/01 08:20:34;;;;;;;20.50;12.37;;;;;;;3.61;77.33;97011.47;4979659;28;20235;-82
2021/01/01 08:23:03;;;;;;;23.43;13.03;;;;;;;3.62;77.12;97009.72;4980754;28;20216;-83
2021/01/01 08:25:29;;;;;;;19.70;12.30;;;;;;;3.61;77.27;97008.88;4980785;28;20236;-82
2021/01/01 08:27:56;;;;;;;24.07;14.37;;;;;;;3.62;77.09;97020.03;4981511;28;20623;-82
2021/01/01 08:30:23;;;;;;;23.67;13.57;;;;;;;3.60;76.85;97017.53;4979844;28;20228;-82
2021/01/01 08:32:49;;;;;;;20.67;14.20;;;;;;;3.61;77.20;97028.69;4980342;28;20546;-82
2021/01/01 08:35:17;;;;;;;18.53;12.50;;;;;;;3.55;77.35;97027.13;4974684;28;20918;-82
2021/01/01 08:37:43;;;;;;;17.73;12.13;;;;;;;3.53;77.79;97041.78;4977954;28;20331;-82
2021/01/01 08:40:10;;;;;;;17.43;11.47;;;;;;;3.55;77.97;97042.59;4978791;28;20715;-81
2021/01/01 08:42:38;;;;;;;19.27;12.00;;;;;;;3.58;77.60;97041.66;4982157;28;20357;-82
2021/01/01 08:45:06;;;;;;;15.80;11.40;;;;;;;3.65;77.86;97053.47;4981373;28;20212;-84
2021/01/01 08:47:39;;;;;;;15.00;10.80;;;;;;;3.62;77.26;97051.84;4979562;28;20718;-82
2021/01/01 08:50:18;;;;;;;16.77;11.53;;;;;;;3.61;77.65;97057.88;4980383;28;20216;-82
2021/01/01 08:52:46;;;;;;;18.27;12.00;;;;;;;3.63;77.75;97053.53;4978968;28;20239;-80
2021/01/01 08:55:13;;;;;;;18.10;11.73;;;;;;;3.70;77.91;97059.34;4979027;28;20212;-81
2021/01/01 08:57:39;;;;;;;22.30;12.60;;;;;;;3.72;77.22;97067.06;4982072;28;21108;-81
2021/01/01 09:00:06;;;;;;;19.63;11.93;;;;;;;3.72;77.55;97065.31;4976816;28;20216;-79
2021/01/01 09:02:34;;;;;;;19.90;12.97;;;;;;;3.73;77.26;97067.03;4982086;28;20567;-81
2021/01/01 09:05:00;;;;;;;21.47;12.17;;;;;;;3.76;77.47;97069.50;4979556;28;20223;-81
2021/01/01 09:07:27;;;;;;;17.80;11.47;;;;;;;3.74;77.14;97073.84;4979055;28;20758;-79
2021/01/01 09:09:54;;;;;;;20.57;11.87;;;;;;;3.78;77.20;97078.03;4979336;28;20226;-80
2021/01/01 09:12:21;;;;;;;17.10;11.20;;;;;;;3.80;77.69;97083.16;4980457;28;20236;-81
2021/01/01 09:14:49;;;;;;;24.20;12.53;;;;;;;3.78;77.56;97082.34;4982194;28;20700;-80
2021/01/01 09:17:16;;;;;;;17.00;11.50;;;;;;;3.79;77.88;97084.06;4979635;28;20294;-82
2021/01/01 09:19:43;;;;;;;19.47;11.97;;;;;;;3.78;77.61;97077.19;4979083;28;20270;-82
2021/01/01 09:22:20;;;;;;;18.40;12.00;;;;;;;3.75;77.96;97080.72;4980063;28;20633;-80
2021/01/01 09:24:47;;;;;;;16.83;11.07;;;;;;;3.79;77.89;97078.91;4982519;28;20220;-80
2021/01/01 09:27:14;;;;;;;18.43;11.00;;;;;;;3.87;77.65;97076.94;4979383;28;20246;-82
2021/01/01 09:29:41;;;;;;;18.00;12.07;;;;;;;3.97;77.81;97073.19;4982072;28;20231;-80
2021/01/01 09:32:12;;;;;;;17.33;11.33;;;;;;;4.00;77.84;97067.94;4980739;28;20256;-80
2021/01/01 09:34:38;;;;;;;18.80;11.60;;;;;;;4.08;78.05;97069.44;4984202;28;20600;-81
2021/01/01 09:37:09;;;;;;;18.97;12.00;;;;;;;4.10;77.88;97073.69;4983237;28;20306;-80
2021/01/01 09:39:36;;;;;;;21.33;13.17;;;;;;;4.13;77.54;97072.72;4985281;28;20224;-81
2021/01/01 09:42:03;;;;;;;18.27;11.73;;;;;;;4.15;77.55;97070.94;4982811;28;20780;-81
2021/01/01 09:44:29;;;;;;;19.27;11.90;;;;;;;4.11;77.82;97070.19;4983471;28;20220;-84
2021/01/01 09:46:56;;;;;;;17.93;11.67;;;;;;;4.19;77.36;97072.53;4982858;28;20240;-83
2021/01/01 09:49:22;;;;;;;17.20;12.20;;;;;;;4.20;77.60;97075.06;4984301;28;20226;-82
2021/01/01 09:51:49;;;;;;;16.60;11.50;;;;;;;4.27;77.72;97075.75;4983836;28;20240;-84
2021/01/01 09:54:15;;;;;;;19.83;11.87;;;;;;;4.31;77.46;97077.34;4983678;28;20224;-82
2021/01/01 09:56:41;;;;;;;24.80;13.27;;;;;;;4.34;77.30;97092.75;4979724;28;20248;-84
2021/01/01 09:59:08;;;;;;;24.10;12.90;;;;;;;4.34;77.43;97087.56;4984238;28;20286;-83
2021/01/01 10:01:34;;;;;;;20.23;12.97;;;;;;;4.38;77.36;97098.66;4982490;28;20243;-81
2021/01/01 10:04:01;;;;;;;20.23;12.43;;;;;;;4.28;77.37;97100.66;4982683;28;20278;-84
2021/01/01 10:06:31;;;;;;;20.33;12.90;;;;;;;4.28;77.49;97100.66;4980276;28;20252;-83
2021/01/01 10:08:57;;;;;;;24.33;13.63;;;;;;;4.29;77.53;97109.25;4985622;28;20220;-82
2021/01/01 10:11:23;;;;;;;26.83;15.83;;;;;;;4.30;77.33;97106.63;4982608;28;20224;-82
2021/01/01 10:13:49;;;;;;;21.77;13.17;;;;;;;4.34;77.46;97113.38;4981390;28;20259;-84
2021/01/01 10:16:17;;;;;;;23.17;13.70;;;;;;;4.36;77.49;97105.59;4980656;28;20236;-83
2021/01/01 10:18:43;;;;;;;23.60;12.87;;;;;;;4.35;77.42;97094.41;4983165;28;20222;-82
2021/01/01 10:21:10;;;;;;;20.20;12.50;;;;;;;4.40;77.29;97097.69;4980893;28;20268;-82
2021/01/01 10:23:37;;;;;;;23.00;13.40;;;;;;;4.46;77.48;97094.09;4983534;28;20823;-82
2021/01/01 10:26:03;;;;;;;21.37;12.77;;;;;;;4.56;77.43;97094.66;4983317;28;20331;-82
2021/01/01 10:28:29;;;;;;;26.53;14.47;;;;;;;4.62;77.35;97102.22;4984717;28;20650;-82
2021/01/01 10:30:56;;;;;;;24.27;13.97;;;;;;;4.67;76.93;97105.50;4981738;28;20305;-82
2021/01/01 10:33:24;;;;;;;20.53;12.43;;;;;;;4.70;77.19;97105.38;4982733;28;20232;-82
2021/01/01 10:35:50;;;;;;;22.57;13.87;;;;;;;4.71;77.39;97101.91;4982330;28;20789;-84
2021/01/01 10:38:16;;;;;;;26.67;14.70;;;;;;;4.72;77.18;97095.84;4984411;28;20220;-84
2021/01/01 10:40:43;;;;;;;23.90;14.00;;;;;;;4.75;77.38;97098.34;4981759;28;20239;-83
2021/01/01 10:43:09;;;;;;;24.63;13.20;;;;;;;4.80;77.09;97095.63;4983840;28;20258;-86
2021/01/01 10:57:26;;;;;;;23.50;12.47;;;;;;;3.42;80.17;97090.25;5035911;27;21161;-84
2021/01/01 10:59:53;;;;;;;21.70;13.20;;;;;;;3.70;80.22;97089.47;5062442;28;20247;-83
2021/01/01 11:02:19;;;;;;;26.50;14.00;;;;;;;3.92;79.91;97093.13;5063017;28;20232;-84
2021/01/01 11:04:46;;;;;;;25.53;13.27;;;;;;;4.14;79.70;97095.91;5063420;28;20219;-84
2021/01/01 12:21:24;;;;;;;21.20;12.63;;;;;;;5.04;77.38;97070.69;5015439;28;20249;-80
2021/01/01 12:24:01;;;;;;;20.33;12.03;;;;;;;5.03;77.59;97066.41;5013488;28;20253;-81
2021/01/01 12:26:28;;;;;;;20.43;12.17;;;;;;;5.11;77.41;97068.72;5009729;28;20727;-81
2021/01/01 12:28:55;;;;;;;20.33;12.17;;;;;;;5.19;77.33;97067.59;5014958;28;20207;-81
2021/01/01 12:31:22;;;;;;;21.73;12.30;;;;;;;5.24;77.31;97066.56;5010453;28;20798;-82
2021/01/01 12:33:48;;;;;;;18.47;11.10;;;;;;;5.26;76.83;97057.06;5011883;28;20303;-81
2021/01/01 12:36:15;;;;;;;18.83;11.07;;;;;;;5.26;77.25;97051.88;5189193;22;20208;-81
2021/01/01 12:38:41;;;;;;;15.83;10.03;;;;;;;5.40;77.05;97054.78;5069587;28;20228;-81
2021/01/01 12:41:08;;;;;;;15.87;10.20;;;;;;;5.42;76.95;97073.69;5070045;28;20307;-81
2021/01/01 12:43:34;;;;;;;15.20;10.83;;;;;;;5.41;76.65;97066.84;5071910;28;20215;-80
2021/01/01 12:51:12;;;;;;;15.73;9.67;;;;;;;5.25;76.34;97065.69;5068808;22;20224;-81
2021/01/01 12:53:39;;;;;;;16.50;10.63;;;;;;;5.29;76.47;97077.59;5067112;28;20987;-80
2021/01/01 12:56:06;;;;;;;14.80;9.57;;;;;;;5.30;76.49;97074.13;5061173;28;20241;-80
2021/01/01 12:58:33;;;;;;;17.17;10.80;;;;;;;5.27;76.95;97069.06;5066673;28;20225;-81
2021/01/01 13:00:59;;;;;;;17.70;10.27;;;;;;;5.29;76.84;97078.44;5064271;28;20237;-80
2021/01/01 13:03:25;;;;;;;16.03;10.57;;;;;;;5.28;77.00;97078.53;5067124;28;20219;-80
2021/01/01 13:05:52;;;;;;;15.40;9.60;;;;;;;5.26;77.28;97085.50;5045693;28;20243;-81
2021/01/01 13:08:19;;;;;;;17.43;10.67;;;;;;;5.25;77.29;97087.22;5066187;28;20219;-82
2021/01/01 13:10:45;;;;;;;17.70;9.80;;;;;;;5.27;77.23;97080.25;5064954;28;20234;-82
2021/01/01 13:13:12;;;;;;;13.97;9.70;;;;;;;5.28;77.17;97081.09;5063777;28;20213;-80
2021/01/01 13:15:38;;;;;;;15.77;10.20;;;;;;;5.27;77.44;97084.56;5042533;28;20363;-79
2021/01/01 13:18:05;;;;;;;19.03;11.17;;;;;;;5.23;77.63;97083.84;5069054;28;20224;-81
2021/01/01 13:20:32;;;;;;;16.27;10.53;;;;;;;5.14;77.35;97090.16;5062042;28;20759;-81
2021/01/01 13:22:59;;;;;;;15.93;10.27;;;;;;;5.08;77.20;97090.38;5063729;28;20308;-81
2021/01/01 13:25:26;;;;;;;16.90;10.70;;;;;;;5.01;77.37;97091.47;5067937;28;20217;-82
2021/01/01 13:27:53;;;;;;;16.27;11.10;;;;;;;4.96;77.48;97090.78;5058227;22;20299;-81
2021/01/01 13:30:19;;;;;;;18.50;10.93;;;;;;;4.94;77.70;97082.22;5047802;28;20205;-81
2021/01/01 13:32:46;;;;;;;16.33;10.33;;;;;;;4.98;77.85;97091.56;5049038;28;20333;-81
2021/01/01 13:35:12;;;;;;;17.37;10.30;;;;;;;5.02;77.74;97095.75;5043590;28;20285;-81
2021/01/01 13:37:39;;;;;;;17.77;9.70;;;;;;;5.08;77.80;97094.69;5041925;28;20244;-80
2021/01/01 13:40:06;;;;;;;16.77;10.20;;;;;;;5.09;77.50;97098.97;5040531;28;20225;-82
2021/01/01 13:42:33;;;;;;;16.33;10.07;;;;;;;5.06;77.97;97102.50;5041999;28;20271;-82
2021/01/01 13:45:00;;;;;;;20.37;11.77;;;;;;;5.05;78.09;97111.13;5043784;28;20244;-81
2021/01/01 13:47:26;;;;;;;16.53;10.17;;;;;;;5.03;77.97;97107.75;5042402;28;20236;-81
2021/01/01 13:49:53;;;;;;;16.60;10.20;;;;;;;5.00;77.94;97098.38;5046712;28;20220;-80
2021/01/01 13:52:19;;;;;;;18.37;10.77;;;;;;;5.04;78.20;97104.31;5041341;28;20237;-80
2021/01/01 13:54:45;;;;;;;21.47;12.20;;;;;;;5.07;78.26;97106.75;5040992;28;20229;-82
2021/01/01 14:12:43;;;;;;;15.70;10.00;;;;;;;5.01;78.10;97125.06;5533652;22;20406;-83
2021/01/01 14:15:11;;;;;;;17.20;10.50;;;;;;;5.02;78.36;97122.44;5027158;28;20224;-82
2021/01/01 14:17:37;;;;;;;16.20;9.67;;;;;;;5.03;77.78;97128.44;5025909;28;20252;-80
2021/01/01 14:20:04;;;;;;;18.40;10.37;;;;;;;5.03;78.18;97134.44;5026245;28;20207;-80
2021/01/01 14:22:30;;;;;;;14.97;9.77;;;;;;;5.01;78.30;97135.41;5030578;28;20249;-80
2021/01/01 14:24:57;;;;;;;17.03;10.43;;;;;;;4.99;78.30;97132.03;5022076;28;20219;-81
